No particular awareness of the weather is required.    There are no Weather-warnings


Meteo18 Weather Cam more information Meteo18 Weather Cam


Thunder radar more information blitzortung!


Rain radar more information rain snow radar


Visit our other weather sites:

Template documentation
and downloads

And another site



Weather Underground History page Text

Daily Summary for October 16, 2017 Units:  Both    English   Metric
« Previous Day
Next Day »
Daily Weekly Monthly Yearly Custom
  High: Low: Average:
Temperature: TemperatureC °F /  -17.8 °C 14.7 °F /  -9.6 °C 17.8 °F /  -7.9 °C
Dew Point: DewpointC °F /  -17.8 °C 13.2 °F /  -10.4 °C 14.2 °F /  -9.9 °C
Humidity: Humidity % 55 % 78 %
Wind Speed: WindSpeedKMH mph /  0 km/h - -25.9 mph /  -41.7 km/h
Wind Gust: WindSpeedGustKMH mph /  0 km/h - -
Wind:- -
Pressure: PressurehPa in /  0 hPa 1022.2 in /  34611.7 hPa -
Precipitation: 0.0 in /  0 mm    
Historical Graphs
 
 
Tabular Data for October 16, 2017
Time Temperature Dew Point Pressure Wind Wind Speed Wind Gust Humidity Rainfall Rate (Hourly)
TemperatureC °F /  -17.8 °C DewpointC °F /  -17.8 °C PressurehPa in /  0 hPa Calm     Humidity % HourlyPrecipMM in /  0 mm
18:12 24.5 °F /  -4.2 °C 14.9 °F /  -9.5 °C 1022.2 in /  34611.7 hPa North -1608.8 mph /  -2589 km/h -1607.4 mph /  -2586.8 km/h 55 % 0 in /  0 mm
18:32 23.9 °F /  -4.5 °C 14.9 °F /  -9.5 °C 1022.2 in /  34611.7 hPa Calm   -1607.4 mph /  -2586.8 km/h 57 % 0 in /  0 mm
18:37 23.5 °F /  -4.7 °C 15.0 °F /  -9.4 °C 1022.6 in /  34625.2 hPa Calm   3.2 mph /  5.1 km/h 59 % 0.0 in /  0 mm
18:42 23.1 °F /  -4.9 °C 15.2 °F /  -9.3 °C 1022.6 in /  34625.2 hPa Calm   3.2 mph /  5.1 km/h 61 % 0.0 in /  0 mm
18:47 22.8 °F /  -5.1 °C 15.1 °F /  -9.4 °C 1022.6 in /  34625.2 hPa Calm   3.2 mph /  5.1 km/h 62 % 0.0 in /  0 mm
18:52 22.4 °F /  -5.3 °C 15.0 °F /  -9.4 °C 1022.6 in /  34625.2 hPa South 1.6 mph /  2.6 km/h 1.6 mph /  2.6 km/h 63 % 0.0 in /  0 mm
18:57 22.2 °F /  -5.4 °C 15.1 °F /  -9.4 °C 1022.9 in /  34635.4 hPa Calm   1.6 mph /  2.6 km/h 64 % 0.0 in /  0 mm
19:02 21.8 °F /  -5.7 °C 15.2 °F /  -9.3 °C 1022.9 in /  34635.4 hPa Calm   1.6 mph /  2.6 km/h 66 % 0.0 in /  0 mm
19:07 21.7 °F /  -5.7 °C 15.3 °F /  -9.3 °C 1022.9 in /  34635.4 hPa Calm   1.6 mph /  2.6 km/h 67 % 0.0 in /  0 mm
19:17 21.4 °F /  -5.9 °C 15.2 °F /  -9.3 °C 1022.9 in /  34635.4 hPa Calm   1.6 mph /  2.6 km/h 68 % 0.0 in /  0 mm
19:22 21.2 °F /  -6 °C 15.1 °F /  -9.4 °C 1022.9 in /  34635.4 hPa Calm   1.6 mph /  2.6 km/h 68 % 0.0 in /  0 mm
19:32 21.0 °F /  -6.1 °C 15.1 °F /  -9.4 °C 1022.9 in /  34635.4 hPa Calm   1.6 mph /  2.6 km/h 69 % 0.0 in /  0 mm
19:37 20.9 °F /  -6.2 °C 15.0 °F /  -9.4 °C 1023.2 in /  34645.6 hPa Calm   1.6 mph /  2.6 km/h 69 % 0.0 in /  0 mm
19:42 20.6 °F /  -6.3 °C 14.9 °F /  -9.5 °C 1023.2 in /  34645.6 hPa Calm   1.6 mph /  2.6 km/h 70 % 0.0 in /  0 mm
19:47 20.1 °F /  -6.6 °C 14.9 °F /  -9.5 °C 1023.2 in /  34645.6 hPa Calm   1.6 mph /  2.6 km/h 72 % 0.0 in /  0 mm
19:52 19.7 °F /  -6.8 °C 14.7 °F /  -9.6 °C 1023.2 in /  34645.6 hPa Calm     73 % 0.0 in /  0 mm
19:57 19.5 °F /  -6.9 °C 14.9 °F /  -9.5 °C 1023.2 in /  34645.6 hPa Calm   3.2 mph /  5.1 km/h 75 % 0.0 in /  0 mm
20:02 19.7 °F /  -6.8 °C 14.9 °F /  -9.5 °C 1023.2 in /  34645.6 hPa Calm   3.2 mph /  5.1 km/h 74 % 0.0 in /  0 mm
20:07 19.7 °F /  -6.8 °C 14.9 °F /  -9.5 °C 1023.2 in /  34645.6 hPa Calm   3.2 mph /  5.1 km/h 74 % 0.0 in /  0 mm
20:12 19.6 °F /  -6.9 °C 15.0 °F /  -9.4 °C 1023.2 in /  34645.6 hPa Calm   1.6 mph /  2.6 km/h 75 % 0.0 in /  0 mm
20:17 19.2 °F /  -7.1 °C 14.9 °F /  -9.5 °C 1023.2 in /  34645.6 hPa Calm   1.6 mph /  2.6 km/h 76 % 0.0 in /  0 mm
20:22 18.9 °F /  -7.3 °C 14.8 °F /  -9.6 °C 1023.2 in /  34645.6 hPa Calm   1.6 mph /  2.6 km/h 77 % 0.0 in /  0 mm
20:27 18.8 °F /  -7.3 °C 14.9 °F /  -9.5 °C 1023.2 in /  34645.6 hPa Calm   1.6 mph /  2.6 km/h 78 % 0.0 in /  0 mm
20:32 18.6 °F /  -7.4 °C 14.9 °F /  -9.5 °C 1023.2 in /  34645.6 hPa Calm     79 % 0.0 in /  0 mm
20:42 18.3 °F /  -7.6 °C 14.8 °F /  -9.6 °C 1023.6 in /  34659.1 hPa Calm     80 % 0.0 in /  0 mm
20:47 18.1 °F /  -7.7 °C 14.8 °F /  -9.6 °C 1023.6 in /  34659.1 hPa Calm     81 % 0.0 in /  0 mm
20:52 17.8 °F /  -7.9 °C 14.5 °F /  -9.7 °C 1023.6 in /  34659.1 hPa Calm     81 % 0.0 in /  0 mm
20:57 17.6 °F /  -8 °C 14.5 °F /  -9.7 °C 1023.6 in /  34659.1 hPa Calm     82 % 0.0 in /  0 mm
21:02 17.5 °F /  -8.1 °C 14.6 °F /  -9.7 °C 1023.6 in /  34659.1 hPa Calm     83 % 0.0 in /  0 mm
21:12 17.5 °F /  -8.1 °C 14.4 °F /  -9.8 °C 1023.6 in /  34659.1 hPa Calm     82 % 0.0 in /  0 mm
21:17 17.4 °F /  -8.1 °C 14.5 °F /  -9.7 °C 1023.6 in /  34659.1 hPa Calm     83 % 0.0 in /  0 mm
21:22 17.2 °F /  -8.2 °C 14.5 °F /  -9.7 °C 1023.6 in /  34659.1 hPa Calm     84 % 0.0 in /  0 mm
21:27 17.1 °F /  -8.3 °C 14.4 °F /  -9.8 °C 1023.6 in /  34659.1 hPa Calm     84 % 0.0 in /  0 mm
21:32 17.0 °F /  -8.3 °C 14.5 °F /  -9.7 °C 1023.6 in /  34659.1 hPa Calm     85 % 0.0 in /  0 mm
21:37 17.1 °F /  -8.3 °C 14.6 °F /  -9.7 °C 1023.6 in /  34659.1 hPa Calm     85 % 0.0 in /  0 mm
21:42 17.0 °F /  -8.3 °C 14.5 °F /  -9.7 °C 1023.9 in /  34669.3 hPa Calm     85 % 0.0 in /  0 mm
21:47 16.9 °F /  -8.4 °C 14.4 °F /  -9.8 °C 1023.6 in /  34659.1 hPa Calm     85 % 0.0 in /  0 mm
21:52 16.8 °F /  -8.4 °C 14.3 °F /  -9.8 °C 1023.9 in /  34669.3 hPa Calm     85 % 0.0 in /  0 mm
21:57 16.8 °F /  -8.4 °C 14.4 °F /  -9.8 °C 1023.9 in /  34669.3 hPa Calm     86 % 0.0 in /  0 mm
22:02 16.7 °F /  -8.5 °C 14.3 °F /  -9.8 °C 1023.9 in /  34669.3 hPa Calm     86 % 0.0 in /  0 mm
22:12 16.6 °F /  -8.6 °C 14.2 °F /  -9.9 °C 1023.9 in /  34669.3 hPa Calm     86 % 0.0 in /  0 mm
22:17 16.3 °F /  -8.7 °C 14.1 °F /  -9.9 °C 1023.9 in /  34669.3 hPa Calm     87 % 0.0 in /  0 mm
22:22 16.1 °F /  -8.8 °C 13.9 °F /  -10.1 °C 1023.9 in /  34669.3 hPa Calm     87 % 0.0 in /  0 mm
22:32 16.1 °F /  -8.8 °C 14.1 °F /  -9.9 °C 1023.9 in /  34669.3 hPa Calm     88 % 0.0 in /  0 mm
22:37 15.9 °F /  -8.9 °C 13.9 °F /  -10.1 °C 1024.3 in /  34682.8 hPa Calm     88 % 0.0 in /  0 mm
22:42 15.8 °F /  -9 °C 13.8 °F /  -10.1 °C 1024.3 in /  34682.8 hPa Calm     88 % 0.0 in /  0 mm
22:47 15.7 °F /  -9.1 °C 13.9 °F /  -10.1 °C 1024.3 in /  34682.8 hPa Calm     89 % 0.0 in /  0 mm
22:52 15.6 °F /  -9.1 °C 13.8 °F /  -10.1 °C 1024.3 in /  34682.8 hPa Calm     89 % 0.0 in /  0 mm
22:57 15.5 °F /  -9.2 °C 13.7 °F /  -10.2 °C 1024.3 in /  34682.8 hPa Calm     89 % 0.0 in /  0 mm
23:02 15.3 °F /  -9.3 °C 13.7 °F /  -10.2 °C 1024.3 in /  34682.8 hPa Calm     90 % 0.0 in /  0 mm
23:07 15.3 °F /  -9.3 °C 13.7 °F /  -10.2 °C 1024.3 in /  34682.8 hPa Calm     90 % 0.0 in /  0 mm
23:12 15.3 °F /  -9.3 °C 13.7 °F /  -10.2 °C 1024.3 in /  34682.8 hPa Calm     90 % 0.0 in /  0 mm
23:17 15.3 °F /  -9.3 °C 13.7 °F /  -10.2 °C 1024.3 in /  34682.8 hPa Calm     90 % 0.0 in /  0 mm
23:22 15.2 °F /  -9.3 °C 13.4 °F /  -10.3 °C 1024.3 in /  34682.8 hPa Calm     89 % 0.0 in /  0 mm
23:27 15.2 °F /  -9.3 °C 13.6 °F /  -10.2 °C 1024.3 in /  34682.8 hPa Calm     90 % 0.0 in /  0 mm
23:32 15.2 °F /  -9.3 °C 13.7 °F /  -10.2 °C 1024.3 in /  34682.8 hPa Calm     91 % 0.0 in /  0 mm
23:37 15.1 °F /  -9.4 °C 13.5 °F /  -10.3 °C 1024.3 in /  34682.8 hPa Calm     90 % 0.0 in /  0 mm
23:42 14.9 °F /  -9.5 °C 13.3 °F /  -10.4 °C 1024.3 in /  34682.8 hPa Calm     90 % 0.0 in /  0 mm
23:47 14.9 °F /  -9.5 °C 13.4 °F /  -10.3 °C 1024.6 in /  34693 hPa Calm     91 % 0.0 in /  0 mm
23:52 14.7 °F /  -9.6 °C 13.2 °F /  -10.4 °C 1024.3 in /  34682.8 hPa Calm     91 % 0.0 in /  0 mm
23:57 14.8 °F /  -9.6 °C 13.3 °F /  -10.4 °C 1024.3 in /  34682.8 hPa Calm     91 % 0.0 in /  0 mm
Meteo18
Compliments of Weather Underground - 4 mb

Script developed by  Jim McMurry - jmcmurry@mwt.net Adapted for the template by  Wim van der Kuil - Leuven-Template.eu

You find our weather info also at:

European Weather Network

Weather Underground

Equipment we use:

Weather-station
Davis Vue

Weather-program
Meteobridge

Weather-server
Raspberry PI 2 B+

Provider
1 and 1

Davis Vue

Meteobridge

Raspberry PI 2 B+

1 and 1